Time;durP1;ratioP1;P1;durP2;ratioP2;P2;SDS_P1;SDS_P2;PMS_P1;PMS_P2;Temp;Humidity;BMP_temperature;BMP_pressure;BME280_temperature;BME280_humidity;BME280_pressure;Samples;Min_cycle;Max_cycle;Signal;HPM_P1;HPM_P2
2021/06/29 12:13:26;;;;;;;5.05;2.22;;;;;;;23.27;80.73;100098.47;5020088;28;20076;-81
2021/06/29 12:28:43;;;;;;;6.47;2.13;;;;;;;23.46;78.78;100089.91;4978765;28;20501;-79
2021/06/29 12:31:10;;;;;;;;;;;;;;;23.07;78.98;100087.66;4964603;28;20406;-80
2021/06/29 12:33:36;;;;;;;5.65;2.10;;;;;;;22.64;82.46;100085.66;5014639;23;19922;-86
2021/06/29 12:36:13;;;;;;;4.03;2.00;;;;;;;22.70;84.31;100079.88;5002663;28;20006;-87
2021/06/29 12:38:45;;;;;;;5.90;2.00;;;;;;;22.54;81.97;100079.38;5002117;28;20026;-86
2021/06/29 12:41:31;;;;;;;4.60;2.08;;;;;;;22.21;86.46;100086.22;5017620;28;20022;-87
2021/06/29 12:44:03;;;;;;;7.18;2.47;;;;;;;22.04;89.56;100082.19;5001531;28;20014;-87
2021/06/29 12:46:35;;;;;;;6.03;2.03;;;;;;;21.74;89.75;100087.91;5002101;28;20046;-86
2021/06/29 12:49:02;;;;;;;10.27;2.10;;;;;;;21.50;91.19;100089.66;5002302;28;20011;-86
2021/06/29 12:51:30;;;;;;;4.28;2.10;;;;;;;21.34;95.34;100085.44;5002100;28;20026;-86
2021/06/29 12:54:00;;;;;;;5.78;2.58;;;;;;;21.26;98.10;100092.19;5001500;28;20029;-87
2021/06/29 12:56:36;;;;;;;7.90;2.38;;;;;;;21.17;96.30;100085.75;5001810;28;20030;-87
2021/06/29 12:59:03;;;;;;;5.40;2.35;;;;;;;21.07;97.01;100090.00;5002554;28;20026;-87
2021/06/29 13:01:28;;;;;;;10.18;2.47;;;;;;;21.11;95.11;100080.91;5000413;28;20066;-86
2021/06/29 13:03:56;;;;;;;4.78;2.15;;;;;;;21.06;99.97;100085.66;5000416;28;20022;-87
2021/06/29 13:06:23;;;;;;;5.43;2.30;;;;;;;21.10;100.00;100088.00;4999629;28;20018;-87
2021/06/29 13:08:50;;;;;;;5.80;2.67;;;;;;;21.02;100.00;100087.66;4997117;28;20027;-87
2021/06/29 13:11:18;;;;;;;5.30;2.85;;;;;;;21.00;100.00;100091.34;4985418;28;20121;-86
2021/06/29 13:13:58;;;;;;;4.47;2.15;;;;;;;20.92;100.00;100090.09;4984556;28;20058;-87
2021/06/29 13:16:23;;;;;;;5.35;2.63;;;;;;;21.02;100.00;100076.28;4989660;28;20026;-86
2021/06/29 13:18:49;;;;;;;4.97;2.70;;;;;;;21.21;100.00;100079.31;4982800;28;20030;-87
2021/06/29 13:21:26;;;;;;;5.03;2.35;;;;;;;21.28;98.66;100067.41;4980029;28;20367;-87
2021/06/29 13:24:09;;;;;;;4.97;2.53;;;;;;;21.26;99.73;100069.28;4985922;28;20026;-86
2021/06/29 13:27:03;;;;;;;5.60;2.73;;;;;;;21.37;99.69;100061.50;4983344;28;20018;-84
2021/06/29 13:29:34;;;;;;;4.82;2.50;;;;;;;21.37;98.50;100064.13;4992386;28;20010;-86
2021/06/29 13:32:01;;;;;;;4.65;2.30;;;;;;;21.48;97.44;100065.16;4994352;28;20030;-87
2021/06/29 13:34:30;;;;;;;5.97;2.22;;;;;;;21.75;94.73;100068.44;4994631;28;20053;-86
2021/06/29 13:36:55;;;;;;;4.97;2.60;;;;;;;21.76;95.04;100061.38;4995574;28;20026;-88
2021/06/29 13:39:27;;;;;;;6.63;2.50;;;;;;;21.57;95.92;100059.22;4995003;28;20074;-87
2021/06/29 13:41:53;;;;;;;6.40;2.60;;;;;;;21.60;97.99;100062.47;4996765;28;20039;-87
2021/06/29 13:44:19;;;;;;;6.07;3.10;;;;;;;21.50;98.12;100061.47;4993195;28;20043;-88
2021/06/29 13:46:44;;;;;;;4.95;2.50;;;;;;;21.30;99.49;100064.63;4996528;28;20036;-87
2021/06/29 13:49:19;;;;;;;6.10;2.83;;;;;;;21.29;100.00;100068.25;4995737;28;20037;-87
2021/06/29 13:51:45;;;;;;;5.32;2.88;;;;;;;21.31;100.00;100061.06;4995475;28;20045;-88
2021/06/29 13:54:22;;;;;;;4.85;2.60;;;;;;;21.19;100.00;100068.03;4996424;28;20010;-87
2021/06/29 13:56:49;;;;;;;7.32;2.75;;;;;;;21.10;100.00;100066.06;4992992;28;20028;-88
2021/06/29 13:59:33;;;;;;;5.28;3.00;;;;;;;20.86;100.00;100064.16;4982386;28;20027;-89
2021/06/29 14:01:59;;;;;;;4.90;2.55;;;;;;;20.82;100.00;100065.34;4982604;28;20057;-89
2021/06/29 14:04:25;;;;;;;5.97;3.00;;;;;;;20.72;100.00;100058.16;4962259;28;20054;-88
2021/06/29 14:07:07;;;;;;;5.15;3.10;;;;;;;20.66;100.00;100054.16;4964626;28;20028;-89
2021/06/29 14:09:34;;;;;;;6.35;3.17;;;;;;;20.68;100.00;100061.00;4970655;28;20023;-88
2021/06/29 14:11:59;;;;;;;6.80;3.13;;;;;;;20.65;100.00;100050.66;4965899;28;20027;-88
2021/06/29 14:14:25;;;;;;;5.72;2.80;;;;;;;20.78;100.00;100048.06;4966710;28;20366;-88
2021/06/29 14:16:56;;;;;;;5.68;3.10;;;;;;;21.00;100.00;100046.53;4975357;28;20011;-87
2021/06/29 14:19:21;;;;;;;6.90;3.83;;;;;;;21.18;100.00;100034.69;4975486;28;20062;-87
2021/06/29 14:21:47;;;;;;;8.67;4.23;;;;;;;21.36;100.00;100040.50;4973877;28;20027;-88
2021/06/29 14:24:13;;;;;;;6.15;3.20;;;;;;;21.26;100.00;100048.19;4973294;28;20282;-87
2021/06/29 14:26:38;;;;;;;5.80;2.80;;;;;;;21.50;100.00;100043.00;4976231;28;20031;-87
2021/06/29 14:29:04;;;;;;;6.03;3.03;;;;;;;21.66;100.00;100034.81;4972885;28;20111;-89
2021/06/29 14:31:29;;;;;;;9.60;2.90;;;;;;;21.35;100.00;100041.41;4965875;28;20019;-89
2021/06/29 14:33:55;;;;;;;4.75;2.78;;;;;;;21.66;100.00;100029.53;4965294;28;20109;-89
2021/06/29 14:36:20;;;;;;;5.25;3.22;;;;;;;22.08;100.00;100032.59;4964348;28;20022;-89
2021/06/29 14:38:48;;;;;;;4.68;2.72;;;;;;;21.86;100.00;100021.94;4969140;28;20027;-88
2021/06/29 14:41:14;;;;;;;6.70;2.38;;;;;;;21.95;95.50;100015.97;4970504;28;20038;-88
2021/06/29 14:43:39;;;;;;;4.75;1.92;;;;;;;21.83;86.28;100010.66;4963374;28;20023;-89
2021/06/29 14:46:06;;;;;;;4.65;1.77;;;;;;;22.25;82.18;100011.06;4966740;28;20027;-88
2021/06/29 14:48:55;;;;;;;;;;;;;;;;;;;;;
2021/06/29 14:51:36;;;;;;;;;;;;;;;;;;;;;
2021/06/29 14:54:03;;;;;;;4.95;2.13;;;;;;;22.25;84.33;100018.16;4985758;28;20098;-88
2021/06/29 14:56:49;;;;;;;5.38;2.00;;;;;;;22.40;85.99;100018.78;4992928;28;20038;-87
2021/06/29 15:02:29;;;;;;;4.57;2.33;;;;;;;22.62;87.36;100013.53;4958330;29;20039;-87
2021/06/29 15:04:57;;;;;;;5.47;2.47;;;;;;;22.05;88.02;100012.53;4950257;29;20503;-87
2021/06/29 15:07:22;;;;;;;4.53;2.30;;;;;;;22.00;85.09;100008.56;4949098;29;20050;-87
2021/06/29 15:09:49;;;;;;;5.55;2.53;;;;;;;22.01;87.01;100007.59;4946674;29;20513;-87
2021/06/29 15:12:14;;;;;;;3.78;2.10;;;;;;;22.65;84.79;100009.81;4960959;29;20029;-87
2021/06/29 15:14:40;;;;;;;5.03;2.03;;;;;;;23.11;85.07;100007.06;4960861;29;20106;-86
2021/06/29 15:17:05;;;;;;;5.45;1.95;;;;;;;23.31;85.57;100005.50;4962838;29;20031;-88
2021/06/29 15:19:31;;;;;;;4.15;2.40;;;;;;;22.74;83.42;100009.09;4943786;29;20027;-86
2021/06/29 15:21:56;;;;;;;4.68;2.33;;;;;;;22.75;84.48;99993.13;4959190;29;20058;-85
2021/06/29 15:24:21;;;;;;;5.72;2.25;;;;;;;22.93;82.90;99996.13;4941774;29;20482;-87
2021/06/29 15:26:47;;;;;;;5.03;2.83;;;;;;;23.12;83.72;99997.34;4941481;29;20027;-85
2021/06/29 15:29:15;;;;;;;6.43;2.90;;;;;;;23.07;80.04;99997.72;4942700;29;20659;-86
2021/06/29 15:31:41;;;;;;;6.05;2.60;;;;;;;22.94;80.46;99999.66;4958922;29;20382;-86
2021/06/29 15:34:06;;;;;;;4.65;2.60;;;;;;;23.15;83.40;99997.97;4941755;29;20027;-86
2021/06/29 15:36:31;;;;;;;3.97;2.33;;;;;;;23.60;81.44;99997.84;4942087;29;20027;-85
2021/06/29 15:38:57;;;;;;;4.70;2.75;;;;;;;23.45;81.07;99993.78;4942059;29;20046;-85
2021/06/29 15:41:22;;;;;;;5.25;2.50;;;;;;;23.07;79.96;99994.22;4941442;29;20030;-85
2021/06/29 15:43:47;;;;;;;5.10;2.80;;;;;;;22.54;83.99;99986.88;4958508;29;20034;-85
2021/06/29 15:46:12;;;;;;;4.75;2.60;;;;;;;22.27;84.99;99985.38;4941207;29;20294;-86
2021/06/29 15:48:38;;;;;;;4.72;2.63;;;;;;;22.16;85.73;99985.34;4941769;29;20394;-85
2021/06/29 15:51:03;;;;;;;5.13;2.53;;;;;;;22.37;88.38;99980.22;4942662;29;20030;-86
2021/06/29 15:53:29;;;;;;;4.88;2.83;;;;;;;22.71;84.80;99985.53;4941986;29;20023;-85
2021/06/29 15:55:55;;;;;;;5.28;2.85;;;;;;;22.71;86.16;99986.38;4939833;29;20030;-85
2021/06/29 15:58:21;;;;;;;4.75;2.60;;;;;;;22.73;88.01;99983.63;4941730;29;20178;-85
2021/06/29 16:00:46;;;;;;;5.13;2.65;;;;;;;22.82;88.28;99980.28;4958333;29;20110;-85
2021/06/29 16:03:11;;;;;;;4.93;2.80;;;;;;;22.77;89.31;99978.94;4941278;29;20030;-85
2021/06/29 16:05:36;;;;;;;5.50;2.80;;;;;;;22.90;88.00;99971.72;4958864;29;20029;-85
2021/06/29 16:08:06;;;;;;;4.95;2.45;;;;;;;22.83;84.01;99968.72;4958285;29;20078;-86
2021/06/29 16:10:31;;;;;;;4.95;2.58;;;;;;;22.36;87.68;99964.50;4941024;29;20106;-86
2021/06/29 16:12:56;;;;;;;20.38;3.53;;;;;;;22.35;88.32;99961.00;4941215;29;20050;-86
2021/06/29 16:15:21;;;;;;;6.30;2.53;;;;;;;22.29;89.70;99959.69;4940642;29;20033;-86
2021/06/29 16:17:47;;;;;;;7.37;3.40;;;;;;;22.31;86.90;99961.34;4940520;29;20263;-86
2021/06/29 16:20:14;;;;;;;5.05;2.63;;;;;;;22.21;90.75;99956.78;4940884;29;20717;-86
2021/06/29 16:22:41;;;;;;;5.80;3.17;;;;;;;22.25;89.32;99952.94;4940557;29;20035;-85
2021/06/29 16:25:07;;;;;;;5.80;3.05;;;;;;;22.45;90.00;99947.94;4940413;29;20027;-86
2021/06/29 16:27:33;;;;;;;5.53;2.85;;;;;;;22.62;90.28;99950.09;4940604;29;20031;-86
2021/06/29 16:29:58;;;;;;;7.55;3.17;;;;;;;22.77;89.50;99957.78;4958859;29;20098;-86
2021/06/29 16:32:24;;;;;;;6.03;3.10;;;;;;;22.68;87.52;99952.25;4957409;29;20463;-85
2021/06/29 16:34:50;;;;;;;6.22;3.58;;;;;;;22.54;88.91;99952.50;4957667;29;20027;-87
2021/06/29 16:37:15;;;;;;;17.83;4.32;;;;;;;22.55;90.06;99953.34;4957130;29;20030;-86
2021/06/29 16:39:40;;;;;;;6.75;3.30;;;;;;;22.29;89.55;99949.13;4940013;29;20031;-86
2021/06/29 16:42:07;;;;;;;5.27;2.80;;;;;;;22.22;93.29;99942.59;4940198;29;20173;-86
2021/06/29 16:44:32;;;;;;;5.78;2.75;;;;;;;22.12;92.73;99935.47;4943501;29;20302;-86
2021/06/29 16:46:57;;;;;;;5.88;2.92;;;;;;;22.15;92.93;99941.38;4939724;29;20099;-86
2021/06/29 16:49:25;;;;;;;8.50;3.03;;;;;;;22.13;90.05;99939.78;4957103;29;20027;-87
2021/06/29 16:51:51;;;;;;;9.23;3.75;;;;;;;22.00;90.26;99937.25;4940783;29;20054;-86
2021/06/29 16:54:23;;;;;;;5.13;2.90;;;;;;;22.19;92.02;99940.19;4940041;29;20478;-86
2021/06/29 16:56:49;;;;;;;5.00;2.97;;;;;;;22.41;90.93;99949.13;4940152;29;20101;-87
2021/06/29 16:59:15;;;;;;;4.60;2.60;;;;;;;22.15;89.17;99951.94;4939868;29;20401;-87
2021/06/29 17:01:41;;;;;;;5.50;3.03;;;;;;;22.23;90.36;99946.94;4957241;29;20027;-87
2021/06/29 17:04:06;;;;;;;6.07;2.70;;;;;;;22.18;93.66;99946.44;4939809;29;20069;-86
2021/06/29 17:06:31;;;;;;;5.50;2.85;;;;;;;22.20;94.82;99947.19;4956847;28;20114;-87
2021/06/29 17:08:57;;;;;;;6.35;3.42;;;;;;;22.20;96.65;99949.00;4957273;29;20023;-86
2021/06/29 17:11:22;;;;;;;6.13;3.55;;;;;;;22.17;96.85;99952.69;4957495;29;20106;-86
2021/06/29 17:13:47;;;;;;;6.95;3.83;;;;;;;22.08;97.94;99945.44;4939728;29;20043;-87
2021/06/29 17:16:13;;;;;;;7.22;4.22;;;;;;;22.05;98.56;99948.31;4939438;29;20030;-87
2021/06/29 17:18:38;;;;;;;7.32;4.35;;;;;;;22.07;99.60;99951.66;4939247;29;20043;-87
2021/06/29 17:21:04;;;;;;;7.65;4.00;;;;;;;22.06;98.60;99952.63;4939139;29;20031;-86
2021/06/29 17:23:29;;;;;;;8.05;3.67;;;;;;;22.02;99.14;99951.19;4939198;29;20121;-87
2021/06/29 17:25:55;;;;;;;6.72;3.70;;;;;;;22.05;99.22;99956.25;4939998;29;20059;-87
2021/06/29 17:28:21;;;;;;;7.97;4.20;;;;;;;21.89;98.00;99950.41;4939806;29;20467;-85
2021/06/29 17:30:46;;;;;;;6.20;3.92;;;;;;;21.96;99.42;99954.28;4939627;29;20031;-85
2021/06/29 17:33:11;;;;;;;8.15;4.10;;;;;;;21.43;100.00;99941.50;4956043;29;20031;-85
2021/06/29 17:35:37;;;;;;;6.30;3.95;;;;;;;21.93;100.00;99955.38;4939079;29;20027;-86
2021/06/29 17:38:05;;;;;;;6.82;4.00;;;;;;;22.15;100.00;99951.94;4943544;29;20050;-87
2021/06/29 17:40:30;;;;;;;6.30;4.40;;;;;;;22.13;99.77;99953.84;4946183;29;20024;-87
2021/06/29 17:42:56;;;;;;;6.47;4.22;;;;;;;21.60;100.00;99949.00;4957648;28;20087;-85
2021/06/29 17:45:21;;;;;;;5.47;3.60;;;;;;;21.27;100.00;99939.06;4962352;28;20035;-85
2021/06/29 17:47:47;;;;;;;6.10;3.53;;;;;;;20.99;100.00;99934.13;4976715;28;20027;-85
2021/06/29 17:50:12;;;;;;;7.85;4.25;;;;;;;20.80;100.00;99929.31;4961271;28;20018;-85
2021/06/29 17:52:38;;;;;;;7.47;3.78;;;;;;;20.52;100.00;99931.25;4976700;28;20091;-87
2021/06/29 17:55:05;;;;;;;5.78;3.10;;;;;;;20.60;100.00;99936.84;4961891;28;20027;-84
2021/06/29 17:57:30;;;;;;;5.43;3.35;;;;;;;20.75;100.00;99937.56;4974815;29;20062;-85
2021/06/29 17:59:55;;;;;;;6.18;3.25;;;;;;;20.60;100.00;99939.47;4959667;29;20034;-85
2021/06/29 18:02:21;;;;;;;5.80;3.25;;;;;;;20.56;100.00;99947.69;4958366;28;20032;-85
2021/06/29 18:04:46;;;;;;;5.97;3.42;;;;;;;20.76;100.00;99952.41;4954598;29;20078;-84
2021/06/29 18:07:11;;;;;;;6.07;4.10;;;;;;;20.51;100.00;99963.78;4971945;29;20057;-85
2021/06/29 18:09:37;;;;;;;6.72;4.40;;;;;;;20.57;100.00;99954.66;4968179;29;20027;-85
2021/06/29 18:12:03;;;;;;;7.30;4.10;;;;;;;20.64;100.00;99954.13;4967081;29;20027;-86
2021/06/29 18:14:28;;;;;;;5.68;3.75;;;;;;;20.61;100.00;99948.22;4968503;29;20030;-85
2021/06/29 18:16:54;;;;;;;6.95;3.75;;;;;;;20.54;100.00;99936.44;4966075;29;20035;-88
2021/06/29 18:19:19;;;;;;;5.93;3.83;;;;;;;20.52;100.00;99933.06;4944689;29;20031;-87
2021/06/29 18:21:45;;;;;;;5.43;3.65;;;;;;;20.67;100.00;99937.25;4964782;29;20091;-87
2021/06/29 18:24:11;;;;;;;6.93;3.95;;;;;;;20.65;100.00;99931.22;4949513;29;20086;-87
2021/06/29 18:26:37;;;;;;;6.43;3.72;;;;;;;20.34;100.00;99933.34;4945385;29;20049;-86
2021/06/29 18:29:03;;;;;;;5.55;3.63;;;;;;;20.27;100.00;99929.44;4948540;29;20046;-86
2021/06/29 18:31:29;;;;;;;8.20;3.92;;;;;;;20.32;100.00;99919.44;4952760;29;20019;-86
2021/06/29 18:33:59;;;;;;;5.78;3.70;;;;;;;20.35;100.00;99921.00;4951980;29;20051;-87
2021/06/29 18:36:25;;;;;;;6.10;3.75;;;;;;;20.43;100.00;99922.16;4994425;23;20066;-79
2021/06/29 18:38:51;;;;;;;6.32;4.30;;;;;;;20.40;100.00;99927.63;4957179;28;20081;-80
2021/06/29 18:41:16;;;;;;;7.00;4.32;;;;;;;20.38;100.00;99924.28;4974792;28;20479;-80
2021/06/29 18:43:41;;;;;;;7.18;3.75;;;;;;;20.39;100.00;99923.34;4975047;28;20030;-80
2021/06/29 18:46:07;;;;;;;5.78;3.88;;;;;;;20.26;100.00;99935.66;4974622;28;20469;-79
2021/06/29 18:48:32;;;;;;;6.32;4.18;;;;;;;20.19;100.00;99937.84;4957381;28;20030;-79
2021/06/29 18:50:58;;;;;;;6.32;4.10;;;;;;;20.11;100.00;99942.81;4957259;28;20372;-79
2021/06/29 18:53:23;;;;;;;6.32;4.35;;;;;;;20.09;100.00;99941.22;4975087;28;20019;-79
2021/06/29 18:55:49;;;;;;;6.28;4.07;;;;;;;20.07;100.00;99948.38;4974561;28;20031;-79
2021/06/29 18:58:16;;;;;;;6.90;4.10;;;;;;;19.98;100.00;99944.56;4957473;28;20085;-80
2021/06/29 19:00:42;;;;;;;7.68;4.30;;;;;;;19.85;100.00;99936.66;4974975;28;20521;-80
2021/06/29 19:03:07;;;;;;;7.80;4.45;;;;;;;19.82;100.00;99930.75;4957689;28;20478;-81
2021/06/29 19:05:32;;;;;;;6.70;4.25;;;;;;;19.75;100.00;99927.69;4957539;28;20134;-80
2021/06/29 19:07:59;;;;;;;6.65;4.22;;;;;;;19.61;100.00;99919.84;4958233;28;20019;-80
2021/06/29 19:10:25;;;;;;;5.82;3.88;;;;;;;19.63;100.00;99910.06;4975314;28;20022;-81
2021/06/29 19:12:50;;;;;;;6.30;3.70;;;;;;;19.51;100.00;99906.44;4957634;28;20605;-81
2021/06/29 19:15:18;;;;;;;6.40;4.00;;;;;;;19.49;100.00;99924.13;4957837;28;20607;-82
2021/06/29 19:17:45;;;;;;;7.68;4.20;;;;;;;19.44;100.00;99927.06;4957752;28;20022;-81
2021/06/29 19:20:13;;;;;;;6.25;4.00;;;;;;;19.35;100.00;99925.03;4975217;28;20031;-80
2021/06/29 19:22:39;;;;;;;6.80;4.03;;;;;;;19.29;100.00;99925.41;4958120;28;20030;-80
2021/06/29 19:25:06;;;;;;;6.68;4.40;;;;;;;19.28;100.00;99924.56;4975600;28;20023;-81
2021/06/29 19:27:31;;;;;;;6.57;4.03;;;;;;;19.18;100.00;99923.50;4975248;28;20026;-81
2021/06/29 19:29:56;;;;;;;6.65;4.03;;;;;;;19.16;100.00;99922.72;4958057;28;20027;-80
2021/06/29 19:32:24;;;;;;;6.32;3.85;;;;;;;19.12;100.00;99923.88;4960840;28;20097;-79
2021/06/29 19:34:49;;;;;;;7.30;4.00;;;;;;;19.18;100.00;99928.75;4978059;28;20113;-80
2021/06/29 19:37:14;;;;;;;5.97;3.70;;;;;;;19.16;100.00;99919.28;4960350;28;20118;-79
2021/06/29 19:39:39;;;;;;;9.03;3.90;;;;;;;19.14;100.00;99916.72;4978102;28;20019;-79
2021/06/29 19:42:05;;;;;;;6.28;3.70;;;;;;;19.02;100.00;99910.47;4977932;28;20630;-79
2021/06/29 19:44:30;;;;;;;6.57;3.80;;;;;;;18.96;100.00;99907.38;4960779;28;20042;-80
2021/06/29 19:46:55;;;;;;;5.85;3.63;;;;;;;18.80;100.00;99899.63;4977879;28;20031;-79
2021/06/29 19:49:21;;;;;;;6.22;4.20;;;;;;;18.78;100.00;99909.38;4960651;28;20501;-80
2021/06/29 19:51:46;;;;;;;7.22;4.18;;;;;;;18.76;100.00;99911.28;4977907;28;20054;-80
2021/06/29 19:54:11;;;;;;;7.43;5.03;;;;;;;18.72;100.00;99907.09;4977698;28;20545;-80
2021/06/29 19:56:39;;;;;;;7.22;4.57;;;;;;;18.74;100.00;99905.25;4960239;28;20041;-80
2021/06/29 19:59:04;;;;;;;6.57;4.25;;;;;;;18.71;100.00;99906.25;4960260;28;20023;-80
2021/06/29 20:01:30;;;;;;;6.18;4.30;;;;;;;18.73;100.00;99899.19;4977816;28;20030;-80
2021/06/29 20:03:55;;;;;;;6.93;3.70;;;;;;;18.75;100.00;99891.19;4978578;28;20042;-79
2021/06/29 20:06:20;;;;;;;6.90;3.60;;;;;;;18.76;100.00;99887.63;4978284;28;20023;-80
2021/06/29 20:08:45;;;;;;;6.72;3.85;;;;;;;18.77;100.00;99894.56;4960593;28;20034;-80
2021/06/29 20:11:11;;;;;;;6.18;4.47;;;;;;;18.82;100.00;99897.75;4977887;28;20082;-80
2021/06/29 20:13:37;;;;;;;6.38;4.25;;;;;;;18.86;100.00;99900.06;4959924;28;20026;-80
2021/06/29 20:16:03;;;;;;;6.68;4.63;;;;;;;18.78;100.00;99906.75;4959487;28;20030;-80
2021/06/29 20:18:29;;;;;;;6.72;4.43;;;;;;;18.74;100.00;99907.88;4959883;28;20113;-80
2021/06/29 20:20:55;;;;;;;7.22;4.63;;;;;;;18.78;100.00;99909.38;4977016;28;20110;-80
2021/06/29 20:23:20;;;;;;;7.35;4.50;;;;;;;18.83;100.00;99902.06;4976934;28;20239;-80
2021/06/29 20:25:45;;;;;;;5.95;4.47;;;;;;;18.83;100.00;99902.06;4977086;28;20584;-81
2021/06/29 20:28:13;;;;;;;6.50;4.38;;;;;;;18.82;100.00;99903.00;4976708;28;20037;-81
2021/06/29 20:30:39;;;;;;;6.72;4.05;;;;;;;18.78;100.00;99901.50;4959383;28;20046;-80
2021/06/29 20:33:05;;;;;;;6.47;4.63;;;;;;;18.79;100.00;99903.22;4959626;28;20442;-81
2021/06/29 20:35:30;;;;;;;8.00;4.70;;;;;;;18.77;100.00;99913.78;4959626;28;20027;-80
2021/06/29 20:37:56;;;;;;;7.75;4.70;;;;;;;18.71;100.00;99916.78;4959528;28;20093;-81
2021/06/29 20:40:21;;;;;;;9.23;4.22;;;;;;;18.73;100.00;99922.81;4976869;28;20026;-80
2021/06/29 20:42:47;;;;;;;10.57;5.47;;;;;;;18.73;100.00;99924.59;4958859;28;20033;-80
2021/06/29 20:45:13;;;;;;;6.43;4.53;;;;;;;18.71;100.00;99929.06;4976932;28;20033;-81
2021/06/29 20:47:39;;;;;;;6.85;4.82;;;;;;;18.69;100.00;99928.31;4976860;28;20108;-81
2021/06/29 20:50:06;;;;;;;6.22;4.78;;;;;;;18.64;100.00;99929.44;4959190;28;20422;-81
2021/06/29 20:52:32;;;;;;;6.72;4.78;;;;;;;18.54;100.00;99925.72;4958854;28;20062;-81
2021/06/29 20:54:57;;;;;;;9.30;4.90;;;;;;;18.52;100.00;99922.31;4975959;28;20058;-81
2021/06/29 20:57:22;;;;;;;7.15;5.20;;;;;;;18.54;100.00;99917.84;4959156;28;20031;-81
2021/06/29 20:59:49;;;;;;;7.90;4.20;;;;;;;18.51;100.00;99920.66;4959119;28;20027;-81
2021/06/29 21:02:14;;;;;;;8.77;4.75;;;;;;;18.53;100.00;99913.50;4959262;28;20027;-81
2021/06/29 21:04:40;;;;;;;6.40;4.60;;;;;;;18.60;100.00;99916.63;4959124;28;20033;-81
2021/06/29 21:07:05;;;;;;;7.63;4.70;;;;;;;18.59;100.00;99907.03;4959167;28;20086;-81
2021/06/29 21:09:31;;;;;;;6.90;4.35;;;;;;;18.58;100.00;99906.19;4976293;28;20026;-81
2021/06/29 21:11:56;;;;;;;5.65;4.00;;;;;;;18.58;100.00;99903.56;4958480;28;20070;-81
2021/06/29 21:14:21;;;;;;;6.40;4.20;;;;;;;18.48;100.00;99905.06;4958675;28;20027;-80
2021/06/29 21:16:47;;;;;;;7.15;4.30;;;;;;;18.34;100.00;99903.28;4958331;28;20027;-80
2021/06/29 21:19:12;;;;;;;6.72;3.92;;;;;;;18.46;100.00;99903.47;4958570;28;20027;-80
2021/06/29 21:21:37;;;;;;;6.72;3.97;;;;;;;18.42;100.00;99894.94;4958724;28;20067;-81
2021/06/29 21:24:03;;;;;;;7.47;4.32;;;;;;;18.28;100.00;99882.66;4976219;28;20077;-81
2021/06/29 21:26:29;;;;;;;6.35;4.00;;;;;;;18.23;100.00;99889.16;4958993;28;20435;-81
2021/06/29 21:28:56;;;;;;;5.40;3.90;;;;;;;18.25;100.00;99882.84;4958557;28;20082;-80
2021/06/29 21:31:21;;;;;;;5.88;4.10;;;;;;;18.21;100.00;99891.00;4959082;28;20026;-80
2021/06/29 21:33:47;;;;;;;6.40;4.00;;;;;;;18.14;100.00;99886.13;4958380;28;20023;-80
2021/06/29 21:36:13;;;;;;;7.22;4.30;;;;;;;18.04;100.00;99885.00;4958296;28;20134;-81
2021/06/29 21:38:40;;;;;;;8.30;4.60;;;;;;;17.83;100.00;99881.03;4976081;28;20498;-80
2021/06/29 21:41:06;;;;;;;8.30;4.38;;;;;;;17.76;100.00;99879.66;4975477;28;20081;-80
2021/06/29 21:43:31;;;;;;;5.93;4.00;;;;;;;17.69;100.00;99879.16;4976260;28;20061;-80
2021/06/29 21:45:56;;;;;;;6.20;4.63;;;;;;;17.63;100.00;99883.00;4958710;28;20086;-80
2021/06/29 21:48:22;;;;;;;9.15;4.97;;;;;;;17.58;100.00;99889.44;4975513;28;20027;-80
2021/06/29 21:50:48;;;;;;;7.55;4.50;;;;;;;17.47;100.00;99893.53;4958199;28;20048;-80
2021/06/29 21:53:14;;;;;;;6.75;4.40;;;;;;;17.36;100.00;99898.53;4957611;28;20114;-80
2021/06/29 21:55:40;;;;;;;7.07;4.70;;;;;;;17.39;100.00;99900.97;4975490;28;20034;-80
2021/06/29 21:58:06;;;;;;;7.63;5.15;;;;;;;17.34;100.00;99889.09;4958030;28;20026;-80
2021/06/29 22:00:32;;;;;;;7.55;5.15;;;;;;;17.40;100.00;99883.50;4958160;28;20030;-81
2021/06/29 22:02:58;;;;;;;6.80;4.68;;;;;;;17.32;100.00;99888.31;4975299;28;20382;-81
2021/06/29 22:05:24;;;;;;;7.38;5.00;;;;;;;17.30;100.00;99893.63;4975218;28;20027;-81
2021/06/29 22:07:49;;;;;;;6.40;5.03;;;;;;;17.08;100.00;99893.16;4974960;28;20039;-80
2021/06/29 22:10:14;;;;;;;7.00;5.10;;;;;;;17.09;100.00;99889.59;4957599;28;20030;-80
2021/06/29 22:12:40;;;;;;;7.65;5.40;;;;;;;17.10;100.00;99900.00;4975060;28;20035;-80
2021/06/29 22:15:06;;;;;;;8.43;5.60;;;;;;;17.10;100.00;99891.31;4974970;28;20023;-80
2021/06/29 22:17:32;;;;;;;7.32;4.80;;;;;;;16.93;100.00;99892.22;4957598;28;20023;-80
2021/06/29 22:19:57;;;;;;;9.95;5.78;;;;;;;16.92;100.00;99895.78;4974980;28;20030;-79
2021/06/29 22:22:23;;;;;;;8.27;5.78;;;;;;;16.84;100.00;99892.72;4975140;28;20110;-79
2021/06/29 22:24:48;;;;;;;7.13;5.53;;;;;;;16.73;100.00;99888.91;4957734;28;20506;-79
2021/06/29 22:27:14;;;;;;;6.88;5.35;;;;;;;16.73;100.00;99898.53;4975318;28;20510;-79
2021/06/29 22:29:40;;;;;;;7.68;5.65;;;;;;;16.73;100.00;99894.16;4974906;28;20494;-79
2021/06/29 22:32:07;;;;;;;7.18;5.75;;;;;;;16.67;100.00;99893.63;4957501;28;20070;-79
2021/06/29 22:34:33;;;;;;;7.85;5.60;;;;;;;16.62;100.00;99896.47;4974682;28;20063;-79
2021/06/29 22:36:59;;;;;;;8.15;5.70;;;;;;;16.61;100.00;99904.44;4957124;28;20221;-79
2021/06/29 22:39:24;;;;;;;13.55;5.82;;;;;;;16.58;100.00;99903.66;4974645;28;20431;-79
2021/06/29 22:41:50;;;;;;;8.45;5.25;;;;;;;16.64;100.00;99912.97;4975286;28;20040;-79
2021/06/29 22:44:16;;;;;;;9.27;5.85;;;;;;;16.55;100.00;99916.06;4974551;28;20044;-79
2021/06/29 22:46:41;;;;;;;7.70;5.70;;;;;;;16.63;100.00;99913.91;4974394;28;20494;-79
2021/06/29 22:49:06;;;;;;;7.70;5.60;;;;;;;16.77;100.00;99916.63;4957371;28;20474;-79
2021/06/29 22:51:32;;;;;;;8.05;5.93;;;;;;;16.85;100.00;99918.84;4974599;28;20093;-79
2021/06/29 22:53:59;;;;;;;7.93;6.10;;;;;;;16.87;100.00;99921.38;4974730;28;20023;-79
2021/06/29 22:56:24;;;;;;;8.13;6.22;;;;;;;16.85;100.00;99925.88;4974465;28;20471;-79
2021/06/29 22:58:49;;;;;;;9.43;6.05;;;;;;;16.92;100.00;99921.97;4956989;28;20130;-79
2021/06/29 23:01:15;;;;;;;11.48;5.90;;;;;;;16.90;100.00;99924.72;4974354;28;20027;-79
2021/06/29 23:03:40;;;;;;;10.20;6.40;;;;;;;16.88;100.00;99929.16;4974333;28;20493;-79
2021/06/29 23:06:06;;;;;;;10.50;6.20;;;;;;;16.83;100.00;99925.09;4976842;28;20038;-78
2021/06/29 23:08:31;;;;;;;10.70;6.20;;;;;;;16.86;100.00;99914.47;4960626;28;20080;-79
2021/06/29 23:10:56;;;;;;;11.40;6.50;;;;;;;16.84;100.00;99921.53;4960761;28;20014;-79
2021/06/29 23:13:22;;;;;;;11.60;6.47;;;;;;;16.84;100.00;99927.66;4960724;28;20430;-79
2021/06/29 23:15:47;;;;;;;9.40;6.65;;;;;;;16.74;100.00;99922.00;4960762;28;20471;-79
2021/06/29 23:18:13;;;;;;;8.95;6.20;;;;;;;16.73;100.00;99919.50;4979007;28;20086;-79
2021/06/29 23:20:38;;;;;;;9.02;6.35;;;;;;;16.68;100.00;99924.97;4977900;28;20269;-79
2021/06/29 23:23:03;;;;;;;8.25;5.97;;;;;;;16.65;100.00;99917.28;4977935;28;20046;-79
2021/06/29 23:25:29;;;;;;;11.07;6.85;;;;;;;16.52;100.00;99927.56;4960462;28;20027;-79
2021/06/29 23:27:55;;;;;;;12.45;6.65;;;;;;;16.53;100.00;99924.03;4977663;28;20060;-79
2021/06/29 23:30:20;;;;;;;9.55;6.45;;;;;;;16.45;100.00;99920.13;4977864;28;20386;-79
2021/06/29 23:32:45;;;;;;;10.60;6.40;;;;;;;16.45;100.00;99922.75;4977610;28;20037;-79
2021/06/29 23:35:11;;;;;;;13.68;7.35;;;;;;;16.42;100.00;99930.75;4977783;28;20426;-79
2021/06/29 23:37:36;;;;;;;9.50;7.00;;;;;;;16.42;100.00;99928.13;4977465;28;20039;-79
2021/06/29 23:40:08;;;;;;;10.15;7.18;;;;;;;16.28;100.00;99929.69;4959875;28;20113;-79
2021/06/29 23:42:33;;;;;;;9.30;7.35;;;;;;;16.31;100.00;99933.91;4977388;28;20054;-79
2021/06/29 23:44:59;;;;;;;8.40;6.70;;;;;;;16.20;100.00;99933.66;4977382;28;20058;-79
2021/06/29 23:47:25;;;;;;;11.73;6.93;;;;;;;16.27;100.00;99929.78;4977498;28;20026;-79
2021/06/29 23:49:50;;;;;;;8.57;6.32;;;;;;;16.17;100.00;99937.25;4977452;28;20027;-79
2021/06/29 23:52:15;;;;;;;10.60;7.32;;;;;;;16.09;100.00;99929.78;4959975;28;20019;-79
2021/06/29 23:54:41;;;;;;;9.82;7.93;;;;;;;16.14;100.00;99932.19;4959970;28;20027;-79